This is the latest recevied weather packets stored in our database for station/object VA3ZFM-10. If no packets are shown the sender has not sent any weather packets the latest 1 day(s).
| Time | Temp. | Humidity | Pressure | Rain* | Wind** | Luminosity | Snow |
|---|---|---|---|---|---|---|---|
| 1778093775 | 9.44° C | 58% | 1007.9 hPa | 0 mm | - | - | - |
| 1778091351 | 9.44° C | 58% | 1007.7 hPa | 0 mm | - | - | - |
| 1778090744 | 9.44° C | 58% | 1008 hPa | 0 mm | - | - | - |
| 1778090137 | 9.44° C | 59% | 1007.8 hPa | 0 mm | - | - | - |
| 1778088016 | 8.89° C | 62% | 1008.3 hPa | 0 mm | - | - | - |
| 1778087714 | 8.33° C | 63% | 1008 hPa | 0 mm | - | - | - |
| 1778087411 | 8.33° C | 63% | 1008.2 hPa | 0 mm | - | - | - |
| 1778086806 | 8.89° C | 62% | 1008.2 hPa | 0 mm | - | - | - |
| 1778082867 | 9.44° C | 54% | 1007.6 hPa | 0 mm | - | - | - |
| 1778079023 | 8.89° C | 57% | 1007.9 hPa | 0 mm | - | - | - |
| 1778078719 | 8.89° C | 59% | 1008 hPa | 0 mm | - | - | - |
| 1778078417 | 8.89° C | 58% | 1007.9 hPa | 0 mm | - | - | - |
| 1778078114 | 8.89° C | 61% | 1007.9 hPa | 0 mm | - | - | - |
| 1778077813 | 8.89° C | 62% | 1008.1 hPa | 0 mm | - | - | - |
| 1778077510 | 8.33° C | 63% | 1008.3 hPa | 0 mm | - | - | - |
| 1778074177 | 6.67° C | 71% | 1008.2 hPa | 0 mm | - | - | - |
| 1778073572 | 6.67° C | 71% | 1008 hPa | 0 mm | - | - | - |
| 1778072360 | 6.67° C | 73% | 1008.2 hPa | 0 mm | - | - | - |
| 1778072058 | 6.11° C | 74% | 1008.2 hPa | 0 mm | - | - | - |
| 1778071756 | 6.67° C | 74% | 1008.3 hPa | 0 mm | - | - | - |
| 1778071453 | 6.11° C | 75% | 1008.5 hPa | 0 mm | - | - | - |
| 1778070546 | 6.11° C | 75% | 1008.3 hPa | 0 mm | - | - | - |
| 1778069334 | 5.56° C | 76% | 1008.4 hPa | 0 mm | - | - | - |
| 1778069032 | 5.56° C | 77% | 1008.4 hPa | 0 mm | - | - | - |
| 1778067218 | 4.44° C | 79% | 1007.9 hPa | 0 mm | - | - | - |
* Rain latest hour (hover to see other rain measurements)
** Current wind speed in m/s (hover to see current wind gust speed)